sensor_id;sensor_type;location;lat;lon;timestamp;P1;durP1;ratioP1;P2;durP2;ratioP2
84577;SDS011;74803;44.756;19.218;2024-03-07T00:02:22;14.18;;;6.97;;
84577;SDS011;74803;44.756;19.218;2024-03-07T00:04:48;13.50;;;7.80;;
84577;SDS011;74803;44.756;19.218;2024-03-07T00:07:14;14.13;;;8.50;;
84577;SDS011;74803;44.756;19.218;2024-03-07T00:09:40;15.27;;;9.93;;
84577;SDS011;74803;44.756;19.218;2024-03-07T00:12:05;14.93;;;8.20;;
84577;SDS011;74803;44.756;19.218;2024-03-07T00:14:32;18.00;;;9.93;;
84577;SDS011;74803;44.756;19.218;2024-03-07T00:17:00;17.92;;;10.63;;
84577;SDS011;74803;44.756;19.218;2024-03-07T00:19:26;13.88;;;8.02;;
84577;SDS011;74803;44.756;19.218;2024-03-07T00:21:55;12.98;;;8.68;;
84577;SDS011;74803;44.756;19.218;2024-03-07T00:24:22;15.27;;;9.50;;
84577;SDS011;74803;44.756;19.218;2024-03-07T00:26:52;14.02;;;9.27;;
84577;SDS011;74803;44.756;19.218;2024-03-07T00:29:18;14.73;;;10.73;;
84577;SDS011;74803;44.756;19.218;2024-03-07T00:31:45;12.60;;;6.97;;
84577;SDS011;74803;44.756;19.218;2024-03-07T00:34:12;10.88;;;7.35;;
84577;SDS011;74803;44.756;19.218;2024-03-07T00:36:40;14.65;;;8.63;;
84577;SDS011;74803;44.756;19.218;2024-03-07T00:39:05;15.00;;;8.48;;
84577;SDS011;74803;44.756;19.218;2024-03-07T00:41:33;14.02;;;9.23;;
84577;SDS011;74803;44.756;19.218;2024-03-07T00:43:59;14.30;;;11.20;;
84577;SDS011;74803;44.756;19.218;2024-03-07T00:46:25;12.45;;;7.85;;
84577;SDS011;74803;44.756;19.218;2024-03-07T00:48:50;14.05;;;7.88;;
84577;SDS011;74803;44.756;19.218;2024-03-07T00:51:16;12.77;;;8.73;;
84577;SDS011;74803;44.756;19.218;2024-03-07T00:53:42;21.10;;;10.47;;
84577;SDS011;74803;44.756;19.218;2024-03-07T00:56:07;19.65;;;10.65;;
84577;SDS011;74803;44.756;19.218;2024-03-07T00:58:33;21.37;;;11.83;;
84577;SDS011;74803;44.756;19.218;2024-03-07T01:03:25;17.30;;;11.48;;
84577;SDS011;74803;44.756;19.218;2024-03-07T01:05:51;18.17;;;9.77;;
84577;SDS011;74803;44.756;19.218;2024-03-07T01:08:16;12.80;;;9.23;;
84577;SDS011;74803;44.756;19.218;2024-03-07T01:10:42;12.87;;;9.10;;
84577;SDS011;74803;44.756;19.218;2024-03-07T01:13:07;15.02;;;10.43;;
84577;SDS011;74803;44.756;19.218;2024-03-07T01:15:40;13.88;;;8.88;;
84577;SDS011;74803;44.756;19.218;2024-03-07T01:18:06;16.00;;;9.63;;
84577;SDS011;74803;44.756;19.218;2024-03-07T01:20:32;12.55;;;8.95;;
84577;SDS011;74803;44.756;19.218;2024-03-07T01:22:58;16.40;;;12.13;;
84577;SDS011;74803;44.756;19.218;2024-03-07T01:25:23;13.57;;;8.63;;
84577;SDS011;74803;44.756;19.218;2024-03-07T01:27:49;18.23;;;11.57;;
84577;SDS011;74803;44.756;19.218;2024-03-07T01:30:16;16.13;;;11.13;;
84577;SDS011;74803;44.756;19.218;2024-03-07T01:32:42;13.80;;;9.20;;
84577;SDS011;74803;44.756;19.218;2024-03-07T01:35:08;14.00;;;9.07;;
84577;SDS011;74803;44.756;19.218;2024-03-07T01:37:35;16.27;;;10.30;;
84577;SDS011;74803;44.756;19.218;2024-03-07T01:40:01;19.20;;;11.80;;
84577;SDS011;74803;44.756;19.218;2024-03-07T01:42:28;14.13;;;8.93;;
84577;SDS011;74803;44.756;19.218;2024-03-07T01:44:54;15.05;;;10.13;;
84577;SDS011;74803;44.756;19.218;2024-03-07T01:47:19;23.20;;;9.23;;
84577;SDS011;74803;44.756;19.218;2024-03-07T01:49:45;17.20;;;11.60;;
84577;SDS011;74803;44.756;19.218;2024-03-07T01:52:10;12.30;;;8.52;;
84577;SDS011;74803;44.756;19.218;2024-03-07T01:57:04;16.60;;;10.70;;
84577;SDS011;74803;44.756;19.218;2024-03-07T01:59:32;16.85;;;11.10;;
84577;SDS011;74803;44.756;19.218;2024-03-07T02:01:58;18.85;;;11.15;;
84577;SDS011;74803;44.756;19.218;2024-03-07T02:04:27;20.17;;;11.18;;
84577;SDS011;74803;44.756;19.218;2024-03-07T02:06:54;11.65;;;9.80;;
84577;SDS011;74803;44.756;19.218;2024-03-07T02:09:20;17.42;;;10.32;;
84577;SDS011;74803;44.756;19.218;2024-03-07T02:11:49;19.17;;;11.18;;
84577;SDS011;74803;44.756;19.218;2024-03-07T02:14:15;18.63;;;11.38;;
84577;SDS011;74803;44.756;19.218;2024-03-07T02:16:42;15.05;;;10.60;;
84577;SDS011;74803;44.756;19.218;2024-03-07T02:19:10;16.13;;;9.95;;
84577;SDS011;74803;44.756;19.218;2024-03-07T02:21:39;17.88;;;10.07;;
84577;SDS011;74803;44.756;19.218;2024-03-07T02:24:05;20.77;;;14.20;;
84577;SDS011;74803;44.756;19.218;2024-03-07T02:26:31;14.85;;;9.43;;
84577;SDS011;74803;44.756;19.218;2024-03-07T02:28:56;21.80;;;13.98;;
84577;SDS011;74803;44.756;19.218;2024-03-07T02:31:22;22.13;;;12.68;;
84577;SDS011;74803;44.756;19.218;2024-03-07T02:34:03;15.63;;;10.88;;
84577;SDS011;74803;44.756;19.218;2024-03-07T02:36:29;19.08;;;10.65;;
84577;SDS011;74803;44.756;19.218;2024-03-07T02:41:21;14.60;;;10.70;;
84577;SDS011;74803;44.756;19.218;2024-03-07T02:43:46;16.67;;;10.97;;
84577;SDS011;74803;44.756;19.218;2024-03-07T02:46:12;22.38;;;11.95;;
84577;SDS011;74803;44.756;19.218;2024-03-07T02:48:38;18.17;;;11.38;;
84577;SDS011;74803;44.756;19.218;2024-03-07T02:51:04;23.67;;;14.25;;
84577;SDS011;74803;44.756;19.218;2024-03-07T02:53:31;20.63;;;12.45;;
84577;SDS011;74803;44.756;19.218;2024-03-07T02:58:23;16.92;;;11.75;;
84577;SDS011;74803;44.756;19.218;2024-03-07T03:00:58;45.58;;;27.20;;
84577;SDS011;74803;44.756;19.218;2024-03-07T03:03:25;23.95;;;15.68;;
84577;SDS011;74803;44.756;19.218;2024-03-07T03:08:17;26.70;;;14.20;;
84577;SDS011;74803;44.756;19.218;2024-03-07T03:10:42;20.92;;;12.27;;
84577;SDS011;74803;44.756;19.218;2024-03-07T03:13:09;36.88;;;22.98;;
84577;SDS011;74803;44.756;19.218;2024-03-07T03:15:35;26.90;;;16.00;;
84577;SDS011;74803;44.756;19.218;2024-03-07T03:18:03;17.35;;;10.07;;
84577;SDS011;74803;44.756;19.218;2024-03-07T03:20:30;18.60;;;10.73;;
84577;SDS011;74803;44.756;19.218;2024-03-07T03:22:59;18.67;;;13.05;;
84577;SDS011;74803;44.756;19.218;2024-03-07T03:25:25;22.95;;;17.30;;
84577;SDS011;74803;44.756;19.218;2024-03-07T03:27:51;16.85;;;12.38;;
84577;SDS011;74803;44.756;19.218;2024-03-07T03:30:17;27.42;;;15.95;;
84577;SDS011;74803;44.756;19.218;2024-03-07T03:32:49;27.60;;;19.23;;
84577;SDS011;74803;44.756;19.218;2024-03-07T03:35:15;71.10;;;64.85;;
84577;SDS011;74803;44.756;19.218;2024-03-07T03:37:41;21.90;;;17.75;;
84577;SDS011;74803;44.756;19.218;2024-03-07T03:40:07;18.30;;;12.55;;
84577;SDS011;74803;44.756;19.218;2024-03-07T03:42:38;19.58;;;12.95;;
84577;SDS011;74803;44.756;19.218;2024-03-07T03:45:08;20.60;;;13.52;;
84577;SDS011;74803;44.756;19.218;2024-03-07T03:47:39;220.85;;;128.10;;
84577;SDS011;74803;44.756;19.218;2024-03-07T03:50:07;89.53;;;58.53;;
84577;SDS011;74803;44.756;19.218;2024-03-07T03:52:34;22.08;;;16.45;;
84577;SDS011;74803;44.756;19.218;2024-03-07T03:55:03;20.98;;;14.75;;
84577;SDS011;74803;44.756;19.218;2024-03-07T03:57:31;43.15;;;38.45;;
84577;SDS011;74803;44.756;19.218;2024-03-07T03:59:58;23.65;;;15.55;;
84577;SDS011;74803;44.756;19.218;2024-03-07T04:02:24;26.70;;;19.80;;
84577;SDS011;74803;44.756;19.218;2024-03-07T04:04:50;30.42;;;24.65;;
84577;SDS011;74803;44.756;19.218;2024-03-07T04:07:19;30.92;;;22.73;;
84577;SDS011;74803;44.756;19.218;2024-03-07T04:12:11;29.17;;;18.02;;
84577;SDS011;74803;44.756;19.218;2024-03-07T04:14:39;27.92;;;18.23;;
84577;SDS011;74803;44.756;19.218;2024-03-07T04:17:06;30.50;;;21.33;;
84577;SDS011;74803;44.756;19.218;2024-03-07T04:19:37;29.60;;;20.02;;
84577;SDS011;74803;44.756;19.218;2024-03-07T04:22:04;28.83;;;17.52;;
84577;SDS011;74803;44.756;19.218;2024-03-07T04:24:32;28.77;;;18.47;;
84577;SDS011;74803;44.756;19.218;2024-03-07T04:26:59;35.15;;;23.27;;
84577;SDS011;74803;44.756;19.218;2024-03-07T04:29:26;36.25;;;21.83;;
84577;SDS011;74803;44.756;19.218;2024-03-07T04:31:52;30.95;;;20.75;;
84577;SDS011;74803;44.756;19.218;2024-03-07T04:34:18;37.42;;;25.48;;
84577;SDS011;74803;44.756;19.218;2024-03-07T04:36:44;49.58;;;33.13;;
84577;SDS011;74803;44.756;19.218;2024-03-07T04:39:09;68.05;;;44.67;;
84577;SDS011;74803;44.756;19.218;2024-03-07T04:41:53;61.05;;;35.65;;
84577;SDS011;74803;44.756;19.218;2024-03-07T04:44:19;53.50;;;36.60;;
84577;SDS011;74803;44.756;19.218;2024-03-07T04:46:49;62.60;;;42.22;;
84577;SDS011;74803;44.756;19.218;2024-03-07T04:49:16;67.53;;;40.85;;
84577;SDS011;74803;44.756;19.218;2024-03-07T04:51:41;52.83;;;33.28;;
84577;SDS011;74803;44.756;19.218;2024-03-07T04:54:07;63.85;;;39.33;;
84577;SDS011;74803;44.756;19.218;2024-03-07T04:56:33;58.03;;;32.97;;
84577;SDS011;74803;44.756;19.218;2024-03-07T04:58:58;59.30;;;35.70;;
84577;SDS011;74803;44.756;19.218;2024-03-07T05:01:24;67.87;;;40.00;;
84577;SDS011;74803;44.756;19.218;2024-03-07T05:03:50;59.78;;;39.65;;
84577;SDS011;74803;44.756;19.218;2024-03-07T05:06:17;90.45;;;54.60;;
84577;SDS011;74803;44.756;19.218;2024-03-07T05:08:43;71.32;;;47.85;;
84577;SDS011;74803;44.756;19.218;2024-03-07T05:11:09;68.00;;;51.25;;
84577;SDS011;74803;44.756;19.218;2024-03-07T05:13:35;82.93;;;60.25;;
84577;SDS011;74803;44.756;19.218;2024-03-07T05:16:02;83.47;;;59.65;;
84577;SDS011;74803;44.756;19.218;2024-03-07T05:18:28;99.82;;;77.40;;
84577;SDS011;74803;44.756;19.218;2024-03-07T05:20:54;77.35;;;59.00;;
84577;SDS011;74803;44.756;19.218;2024-03-07T05:23:20;68.55;;;44.20;;
84577;SDS011;74803;44.756;19.218;2024-03-07T05:25:45;69.07;;;48.28;;
84577;SDS011;74803;44.756;19.218;2024-03-07T05:28:11;59.17;;;44.63;;
84577;SDS011;74803;44.756;19.218;2024-03-07T05:30:37;50.60;;;32.47;;
84577;SDS011;74803;44.756;19.218;2024-03-07T05:33:02;49.42;;;29.23;;
84577;SDS011;74803;44.756;19.218;2024-03-07T05:37:55;51.53;;;28.42;;
84577;SDS011;74803;44.756;19.218;2024-03-07T05:40:22;76.72;;;35.20;;
84577;SDS011;74803;44.756;19.218;2024-03-07T05:42:47;52.42;;;28.38;;
84577;SDS011;74803;44.756;19.218;2024-03-07T05:45:13;48.83;;;27.30;;
84577;SDS011;74803;44.756;19.218;2024-03-07T05:47:40;51.13;;;30.58;;
84577;SDS011;74803;44.756;19.218;2024-03-07T05:50:06;49.35;;;29.55;;
84577;SDS011;74803;44.756;19.218;2024-03-07T05:52:35;53.42;;;26.67;;
84577;SDS011;74803;44.756;19.218;2024-03-07T05:55:02;54.38;;;29.13;;
84577;SDS011;74803;44.756;19.218;2024-03-07T05:57:28;53.58;;;31.35;;
84577;SDS011;74803;44.756;19.218;2024-03-07T05:59:54;50.33;;;31.85;;
84577;SDS011;74803;44.756;19.218;2024-03-07T06:02:22;53.20;;;29.00;;
84577;SDS011;74803;44.756;19.218;2024-03-07T06:04:47;56.25;;;33.95;;
84577;SDS011;74803;44.756;19.218;2024-03-07T06:07:13;70.22;;;33.28;;
84577;SDS011;74803;44.756;19.218;2024-03-07T06:09:38;67.60;;;37.23;;
84577;SDS011;74803;44.756;19.218;2024-03-07T06:12:04;43.80;;;27.92;;
84577;SDS011;74803;44.756;19.218;2024-03-07T06:14:33;60.15;;;31.30;;
84577;SDS011;74803;44.756;19.218;2024-03-07T06:16:58;49.80;;;26.93;;
84577;SDS011;74803;44.756;19.218;2024-03-07T06:19:26;71.20;;;43.95;;
84577;SDS011;74803;44.756;19.218;2024-03-07T06:21:51;55.40;;;29.90;;
84577;SDS011;74803;44.756;19.218;2024-03-07T06:24:21;48.75;;;31.35;;
84577;SDS011;74803;44.756;19.218;2024-03-07T06:26:47;56.42;;;27.95;;
84577;SDS011;74803;44.756;19.218;2024-03-07T06:31:50;51.15;;;28.95;;
84577;SDS011;74803;44.756;19.218;2024-03-07T06:34:18;51.38;;;28.00;;
84577;SDS011;74803;44.756;19.218;2024-03-07T06:36:44;66.10;;;39.37;;
84577;SDS011;74803;44.756;19.218;2024-03-07T06:39:10;62.13;;;39.17;;
84577;SDS011;74803;44.756;19.218;2024-03-07T06:41:36;58.77;;;32.80;;
84577;SDS011;74803;44.756;19.218;2024-03-07T06:44:02;48.97;;;33.17;;
84577;SDS011;74803;44.756;19.218;2024-03-07T06:46:28;52.70;;;26.52;;
84577;SDS011;74803;44.756;19.218;2024-03-07T06:48:55;40.90;;;22.95;;
84577;SDS011;74803;44.756;19.218;2024-03-07T06:51:23;41.13;;;24.65;;
84577;SDS011;74803;44.756;19.218;2024-03-07T06:53:50;44.47;;;28.65;;
84577;SDS011;74803;44.756;19.218;2024-03-07T06:56:16;49.15;;;29.73;;
84577;SDS011;74803;44.756;19.218;2024-03-07T06:58:42;49.10;;;35.17;;
84577;SDS011;74803;44.756;19.218;2024-03-07T07:01:08;40.50;;;28.05;;
84577;SDS011;74803;44.756;19.218;2024-03-07T07:03:36;34.80;;;26.23;;
84577;SDS011;74803;44.756;19.218;2024-03-07T07:06:03;38.40;;;22.63;;
84577;SDS011;74803;44.756;19.218;2024-03-07T07:08:31;57.95;;;35.80;;
84577;SDS011;74803;44.756;19.218;2024-03-07T07:10:57;51.22;;;36.17;;
84577;SDS011;74803;44.756;19.218;2024-03-07T07:13:23;38.08;;;24.98;;
84577;SDS011;74803;44.756;19.218;2024-03-07T07:15:49;32.67;;;22.38;;
84577;SDS011;74803;44.756;19.218;2024-03-07T07:18:15;31.58;;;20.92;;
84577;SDS011;74803;44.756;19.218;2024-03-07T07:20:41;32.90;;;20.02;;
84577;SDS011;74803;44.756;19.218;2024-03-07T07:23:07;37.67;;;26.30;;
84577;SDS011;74803;44.756;19.218;2024-03-07T07:25:33;45.00;;;31.23;;
84577;SDS011;74803;44.756;19.218;2024-03-07T07:27:59;50.10;;;31.13;;
84577;SDS011;74803;44.756;19.218;2024-03-07T07:30:25;48.75;;;33.83;;
84577;SDS011;74803;44.756;19.218;2024-03-07T07:32:53;52.17;;;38.15;;
84577;SDS011;74803;44.756;19.218;2024-03-07T07:35:19;49.75;;;38.30;;
84577;SDS011;74803;44.756;19.218;2024-03-07T07:37:47;54.75;;;37.72;;
84577;SDS011;74803;44.756;19.218;2024-03-07T07:40:17;30.55;;;20.50;;
84577;SDS011;74803;44.756;19.218;2024-03-07T07:42:50;30.17;;;22.42;;
84577;SDS011;74803;44.756;19.218;2024-03-07T07:45:18;24.23;;;16.63;;
84577;SDS011;74803;44.756;19.218;2024-03-07T07:47:47;34.17;;;22.02;;
84577;SDS011;74803;44.756;19.218;2024-03-07T07:50:17;29.00;;;18.95;;
84577;SDS011;74803;44.756;19.218;2024-03-07T07:55:19;39.45;;;30.73;;
84577;SDS011;74803;44.756;19.218;2024-03-07T07:57:55;36.75;;;25.17;;
84577;SDS011;74803;44.756;19.218;2024-03-07T08:00:22;52.85;;;34.40;;
84577;SDS011;74803;44.756;19.218;2024-03-07T08:02:57;60.92;;;37.95;;
84577;SDS011;74803;44.756;19.218;2024-03-07T08:05:25;53.33;;;40.80;;
84577;SDS011;74803;44.756;19.218;2024-03-07T08:07:53;48.78;;;32.55;;
84577;SDS011;74803;44.756;19.218;2024-03-07T08:10:20;53.08;;;34.67;;
84577;SDS011;74803;44.756;19.218;2024-03-07T08:12:48;47.75;;;31.67;;
84577;SDS011;74803;44.756;19.218;2024-03-07T08:17:41;38.33;;;29.65;;
84577;SDS011;74803;44.756;19.218;2024-03-07T08:22:41;41.47;;;27.98;;
84577;SDS011;74803;44.756;19.218;2024-03-07T08:25:09;45.20;;;26.75;;
84577;SDS011;74803;44.756;19.218;2024-03-07T08:27:36;47.72;;;35.28;;
84577;SDS011;74803;44.756;19.218;2024-03-07T08:30:03;51.47;;;35.88;;
84577;SDS011;74803;44.756;19.218;2024-03-07T08:32:33;53.53;;;38.13;;
84577;SDS011;74803;44.756;19.218;2024-03-07T08:35:03;60.35;;;40.30;;
84577;SDS011;74803;44.756;19.218;2024-03-07T08:37:35;65.70;;;49.30;;
84577;SDS011;74803;44.756;19.218;2024-03-07T08:40:02;59.58;;;38.72;;
84577;SDS011;74803;44.756;19.218;2024-03-07T08:42:37;54.10;;;29.30;;
84577;SDS011;74803;44.756;19.218;2024-03-07T08:45:04;54.65;;;34.20;;
84577;SDS011;74803;44.756;19.218;2024-03-07T08:47:34;50.25;;;38.22;;
84577;SDS011;74803;44.756;19.218;2024-03-07T08:50:03;47.20;;;27.75;;
84577;SDS011;74803;44.756;19.218;2024-03-07T08:52:35;65.10;;;47.92;;
84577;SDS011;74803;44.756;19.218;2024-03-07T08:55:05;56.42;;;33.35;;
84577;SDS011;74803;44.756;19.218;2024-03-07T08:57:34;67.30;;;42.65;;
84577;SDS011;74803;44.756;19.218;2024-03-07T09:00:05;46.28;;;29.13;;
84577;SDS011;74803;44.756;19.218;2024-03-07T09:02:38;66.95;;;44.00;;
84577;SDS011;74803;44.756;19.218;2024-03-07T09:05:04;53.17;;;37.15;;
84577;SDS011;74803;44.756;19.218;2024-03-07T09:07:31;42.50;;;28.73;;
84577;SDS011;74803;44.756;19.218;2024-03-07T09:12:23;48.08;;;29.50;;
84577;SDS011;74803;44.756;19.218;2024-03-07T09:14:50;40.65;;;26.35;;
84577;SDS011;74803;44.756;19.218;2024-03-07T09:17:17;44.80;;;31.10;;
84577;SDS011;74803;44.756;19.218;2024-03-07T09:19:43;46.42;;;29.75;;
84577;SDS011;74803;44.756;19.218;2024-03-07T09:22:10;54.50;;;33.08;;
84577;SDS011;74803;44.756;19.218;2024-03-07T09:27:03;54.00;;;37.50;;
84577;SDS011;74803;44.756;19.218;2024-03-07T09:29:29;63.75;;;45.28;;
84577;SDS011;74803;44.756;19.218;2024-03-07T09:31:55;63.35;;;40.95;;
84577;SDS011;74803;44.756;19.218;2024-03-07T09:34:23;78.40;;;51.13;;
84577;SDS011;74803;44.756;19.218;2024-03-07T09:36:50;57.03;;;40.00;;
84577;SDS011;74803;44.756;19.218;2024-03-07T09:39:26;55.03;;;38.03;;
84577;SDS011;74803;44.756;19.218;2024-03-07T09:41:52;52.90;;;31.98;;
84577;SDS011;74803;44.756;19.218;2024-03-07T09:44:20;50.28;;;34.65;;
84577;SDS011;74803;44.756;19.218;2024-03-07T09:46:49;64.70;;;44.30;;
84577;SDS011;74803;44.756;19.218;2024-03-07T09:49:16;97.07;;;63.47;;
84577;SDS011;74803;44.756;19.218;2024-03-07T09:51:45;52.20;;;37.67;;
84577;SDS011;74803;44.756;19.218;2024-03-07T09:54:12;51.25;;;33.35;;
84577;SDS011;74803;44.756;19.218;2024-03-07T09:56:39;54.60;;;39.25;;
84577;SDS011;74803;44.756;19.218;2024-03-07T09:59:08;46.80;;;32.15;;
84577;SDS011;74803;44.756;19.218;2024-03-07T10:01:41;55.20;;;34.72;;
84577;SDS011;74803;44.756;19.218;2024-03-07T10:04:27;43.47;;;27.60;;
84577;SDS011;74803;44.756;19.218;2024-03-07T10:06:56;45.30;;;31.92;;
84577;SDS011;74803;44.756;19.218;2024-03-07T10:09:24;57.58;;;37.35;;
84577;SDS011;74803;44.756;19.218;2024-03-07T10:11:59;52.03;;;38.55;;
84577;SDS011;74803;44.756;19.218;2024-03-07T10:14:25;56.63;;;34.75;;
84577;SDS011;74803;44.756;19.218;2024-03-07T10:16:54;45.88;;;27.70;;
84577;SDS011;74803;44.756;19.218;2024-03-07T10:19:24;49.53;;;31.58;;
84577;SDS011;74803;44.756;19.218;2024-03-07T10:21:50;48.28;;;27.98;;
84577;SDS011;74803;44.756;19.218;2024-03-07T10:24:17;58.58;;;33.58;;
84577;SDS011;74803;44.756;19.218;2024-03-07T10:26:49;51.92;;;32.42;;
84577;SDS011;74803;44.756;19.218;2024-03-07T10:29:17;60.40;;;29.47;;
84577;SDS011;74803;44.756;19.218;2024-03-07T10:31:43;48.45;;;30.05;;
84577;SDS011;74803;44.756;19.218;2024-03-07T10:34:10;51.40;;;37.50;;
84577;SDS011;74803;44.756;19.218;2024-03-07T10:36:37;40.85;;;29.83;;
84577;SDS011;74803;44.756;19.218;2024-03-07T10:39:02;59.83;;;42.28;;
84577;SDS011;74803;44.756;19.218;2024-03-07T10:41:49;58.83;;;48.72;;
84577;SDS011;74803;44.756;19.218;2024-03-07T10:44:20;61.92;;;47.33;;
84577;SDS011;74803;44.756;19.218;2024-03-07T10:46:53;40.42;;;29.80;;
84577;SDS011;74803;44.756;19.218;2024-03-07T10:49:21;45.35;;;34.65;;
84577;SDS011;74803;44.756;19.218;2024-03-07T10:54:39;41.35;;;25.13;;
84577;SDS011;74803;44.756;19.218;2024-03-07T11:02:52;32.25;;;21.55;;
84577;SDS011;74803;44.756;19.218;2024-03-07T11:05:26;29.17;;;19.35;;
84577;SDS011;74803;44.756;19.218;2024-03-07T11:07:58;38.90;;;23.40;;
84577;SDS011;74803;44.756;19.218;2024-03-07T11:10:33;39.90;;;25.13;;
84577;SDS011;74803;44.756;19.218;2024-03-07T11:13:00;32.90;;;22.05;;
84577;SDS011;74803;44.756;19.218;2024-03-07T11:15:26;32.78;;;21.15;;
84577;SDS011;74803;44.756;19.218;2024-03-07T11:17:54;32.83;;;23.70;;
84577;SDS011;74803;44.756;19.218;2024-03-07T11:20:23;30.38;;;22.27;;
84577;SDS011;74803;44.756;19.218;2024-03-07T11:22:51;35.83;;;22.52;;
84577;SDS011;74803;44.756;19.218;2024-03-07T11:25:20;35.05;;;20.13;;
84577;SDS011;74803;44.756;19.218;2024-03-07T11:27:55;31.35;;;21.73;;
84577;SDS011;74803;44.756;19.218;2024-03-07T11:30:21;31.33;;;19.67;;
84577;SDS011;74803;44.756;19.218;2024-03-07T11:32:47;31.92;;;21.50;;
84577;SDS011;74803;44.756;19.218;2024-03-07T11:35:39;28.00;;;19.00;;
84577;SDS011;74803;44.756;19.218;2024-03-07T11:38:14;28.98;;;19.20;;
84577;SDS011;74803;44.756;19.218;2024-03-07T11:43:29;32.30;;;19.52;;
84577;SDS011;74803;44.756;19.218;2024-03-07T11:45:59;30.13;;;21.40;;
84577;SDS011;74803;44.756;19.218;2024-03-07T11:48:27;26.55;;;18.45;;
84577;SDS011;74803;44.756;19.218;2024-03-07T11:50:56;23.00;;;16.70;;
84577;SDS011;74803;44.756;19.218;2024-03-07T11:53:22;19.47;;;13.70;;
84577;SDS011;74803;44.756;19.218;2024-03-07T11:55:49;23.60;;;14.95;;
84577;SDS011;74803;44.756;19.218;2024-03-07T11:58:24;29.10;;;17.13;;
84577;SDS011;74803;44.756;19.218;2024-03-07T12:01:05;24.98;;;17.58;;
84577;SDS011;74803;44.756;19.218;2024-03-07T12:03:30;21.77;;;16.43;;
84577;SDS011;74803;44.756;19.218;2024-03-07T12:05:59;24.95;;;16.80;;
84577;SDS011;74803;44.756;19.218;2024-03-07T12:08:25;26.38;;;20.27;;
84577;SDS011;74803;44.756;19.218;2024-03-07T12:13:21;21.75;;;14.88;;
84577;SDS011;74803;44.756;19.218;2024-03-07T12:15:48;22.48;;;15.43;;
84577;SDS011;74803;44.756;19.218;2024-03-07T12:18:18;24.70;;;14.70;;
84577;SDS011;74803;44.756;19.218;2024-03-07T12:20:49;22.58;;;17.70;;
84577;SDS011;74803;44.756;19.218;2024-03-07T12:23:21;21.30;;;12.43;;
84577;SDS011;74803;44.756;19.218;2024-03-07T12:25:58;32.35;;;14.40;;
84577;SDS011;74803;44.756;19.218;2024-03-07T12:28:44;18.73;;;13.38;;
84577;SDS011;74803;44.756;19.218;2024-03-07T12:31:11;19.58;;;13.75;;
84577;SDS011;74803;44.756;19.218;2024-03-07T12:34:08;19.25;;;13.40;;
84577;SDS011;74803;44.756;19.218;2024-03-07T12:36:37;22.23;;;15.48;;
84577;SDS011;74803;44.756;19.218;2024-03-07T12:39:27;21.10;;;14.68;;
84577;SDS011;74803;44.756;19.218;2024-03-07T12:41:59;21.15;;;15.32;;
84577;SDS011;74803;44.756;19.218;2024-03-07T12:44:45;24.42;;;17.20;;
84577;SDS011;74803;44.756;19.218;2024-03-07T12:49:57;15.85;;;12.02;;
84577;SDS011;74803;44.756;19.218;2024-03-07T12:54:49;20.67;;;13.63;;
84577;SDS011;74803;44.756;19.218;2024-03-07T12:57:16;16.05;;;10.95;;
84577;SDS011;74803;44.756;19.218;2024-03-07T12:59:42;18.83;;;12.63;;
84577;SDS011;74803;44.756;19.218;2024-03-07T13:02:09;20.73;;;14.88;;
84577;SDS011;74803;44.756;19.218;2024-03-07T13:04:35;14.25;;;10.02;;
84577;SDS011;74803;44.756;19.218;2024-03-07T13:07:05;17.85;;;12.00;;
84577;SDS011;74803;44.756;19.218;2024-03-07T13:12:01;17.58;;;13.45;;
84577;SDS011;74803;44.756;19.218;2024-03-07T13:14:29;21.52;;;13.82;;
84577;SDS011;74803;44.756;19.218;2024-03-07T13:16:58;21.27;;;14.88;;
84577;SDS011;74803;44.756;19.218;2024-03-07T13:19:29;19.08;;;12.63;;
84577;SDS011;74803;44.756;19.218;2024-03-07T13:21:55;19.38;;;13.60;;
84577;SDS011;74803;44.756;19.218;2024-03-07T13:24:25;24.98;;;16.20;;
84577;SDS011;74803;44.756;19.218;2024-03-07T13:26:52;24.15;;;14.57;;
84577;SDS011;74803;44.756;19.218;2024-03-07T13:29:18;20.48;;;12.73;;
84577;SDS011;74803;44.756;19.218;2024-03-07T13:31:49;16.92;;;11.68;;
84577;SDS011;74803;44.756;19.218;2024-03-07T13:34:17;19.27;;;14.93;;
84577;SDS011;74803;44.756;19.218;2024-03-07T13:36:43;23.38;;;14.57;;
84577;SDS011;74803;44.756;19.218;2024-03-07T13:39:10;16.42;;;11.23;;
84577;SDS011;74803;44.756;19.218;2024-03-07T13:41:42;16.48;;;11.75;;
84577;SDS011;74803;44.756;19.218;2024-03-07T13:44:08;16.27;;;11.05;;
84577;SDS011;74803;44.756;19.218;2024-03-07T13:46:35;18.88;;;13.15;;
84577;SDS011;74803;44.756;19.218;2024-03-07T13:49:02;22.13;;;14.90;;
84577;SDS011;74803;44.756;19.218;2024-03-07T13:51:35;27.23;;;17.92;;
84577;SDS011;74803;44.756;19.218;2024-03-07T13:54:02;19.77;;;13.45;;
84577;SDS011;74803;44.756;19.218;2024-03-07T13:56:55;26.58;;;15.85;;
84577;SDS011;74803;44.756;19.218;2024-03-07T14:08:10;19.48;;;13.80;;
84577;SDS011;74803;44.756;19.218;2024-03-07T14:11:18;21.65;;;14.93;;
84577;SDS011;74803;44.756;19.218;2024-03-07T14:14:13;25.63;;;15.75;;
84577;SDS011;74803;44.756;19.218;2024-03-07T14:28:42;21.15;;;15.43;;
84577;SDS011;74803;44.756;19.218;2024-03-07T14:31:17;26.35;;;18.35;;
84577;SDS011;74803;44.756;19.218;2024-03-07T14:36:37;26.33;;;17.13;;
84577;SDS011;74803;44.756;19.218;2024-03-07T14:39:06;30.65;;;23.33;;
84577;SDS011;74803;44.756;19.218;2024-03-07T14:44:20;21.45;;;16.50;;
84577;SDS011;74803;44.756;19.218;2024-03-07T14:46:48;22.55;;;16.00;;
84577;SDS011;74803;44.756;19.218;2024-03-07T14:49:32;20.42;;;14.95;;
84577;SDS011;74803;44.756;19.218;2024-03-07T14:51:59;24.85;;;14.77;;
84577;SDS011;74803;44.756;19.218;2024-03-07T14:54:36;31.75;;;22.23;;
84577;SDS011;74803;44.756;19.218;2024-03-07T14:57:04;20.13;;;14.65;;
84577;SDS011;74803;44.756;19.218;2024-03-07T14:59:30;18.20;;;14.85;;
84577;SDS011;74803;44.756;19.218;2024-03-07T15:01:56;18.73;;;14.38;;
84577;SDS011;74803;44.756;19.218;2024-03-07T15:04:24;16.45;;;12.38;;
84577;SDS011;74803;44.756;19.218;2024-03-07T15:06:57;20.00;;;14.77;;
84577;SDS011;74803;44.756;19.218;2024-03-07T15:09:28;21.77;;;16.02;;
84577;SDS011;74803;44.756;19.218;2024-03-07T15:11:55;22.08;;;11.30;;
84577;SDS011;74803;44.756;19.218;2024-03-07T15:14:21;26.30;;;18.75;;
84577;SDS011;74803;44.756;19.218;2024-03-07T15:16:47;23.95;;;17.45;;
84577;SDS011;74803;44.756;19.218;2024-03-07T15:19:15;24.48;;;16.40;;
84577;SDS011;74803;44.756;19.218;2024-03-07T15:21:40;33.13;;;24.30;;
84577;SDS011;74803;44.756;19.218;2024-03-07T15:24:06;28.87;;;17.97;;
84577;SDS011;74803;44.756;19.218;2024-03-07T15:26:36;27.77;;;21.10;;
84577;SDS011;74803;44.756;19.218;2024-03-07T15:29:01;35.00;;;21.70;;
84577;SDS011;74803;44.756;19.218;2024-03-07T15:31:27;33.80;;;22.75;;
84577;SDS011;74803;44.756;19.218;2024-03-07T15:33:53;21.67;;;16.42;;
84577;SDS011;74803;44.756;19.218;2024-03-07T15:36:19;27.02;;;21.73;;
84577;SDS011;74803;44.756;19.218;2024-03-07T15:38:47;24.85;;;15.35;;